Terminal Aerodrome Forecast
Issued by NWS

Home | Current Version | Previous Version | Graphics & Text | Print | Product List | Glossary On
Versions: 1 2 3 4 5 6 7 8 9 10 11 12 13 14 15 16
000
FTUS42 KMHX 280554
TAFOAJ
TAF
KOAJ 280554Z 2806/2906 VRB03KT P6SM BKN100
     FM281200 VRB04KT P6SM BKN100
     FM281500 23010G18KT P6SM BKN070
     FM282200 21008KT P6SM -SHRA VCTS SCT025 BKN060CB
     FM290100 22005KT P6SM SCT070
      AMD LTD TO CLD VIS AND WIND=

USA.gov is the U.S. government's official web portal to all federal, state and local government web resources and services.